Time;durP1;ratioP1;P1;durP2;ratioP2;P2;SDS_P1;SDS_P2;PMS_P1;PMS_P2;Temp;Humidity;BMP_temperature;BMP_pressure;BME280_temperature;BME280_humidity;BME280_pressure;Samples;Min_cycle;Max_cycle;Signal;HPM_P1;HPM_P2
2022/03/27 00:00:03;;;;;;;35.75;25.35;;;;;;;;;;5054209;28;20095;-70
2022/03/27 00:02:29;;;;;;;38.53;26.30;;;;;;;;;;5054933;28;20056;-70
2022/03/27 00:04:56;;;;;;;33.08;24.17;;;;;;;;;;5054861;28;20277;-70
2022/03/27 00:07:22;;;;;;;34.33;23.77;;;;;;;;;;5054540;28;20053;-69
2022/03/27 00:09:49;;;;;;;31.95;22.70;;;;;;;;;;5055182;28;20447;-70
2022/03/27 00:12:15;;;;;;;31.40;21.85;;;;;;;;;;5054515;28;20512;-70
2022/03/27 00:14:42;;;;;;;30.85;21.70;;;;;;;;;;5054477;28;20049;-69
2022/03/27 00:17:08;;;;;;;31.58;22.17;;;;;;;;;;5054610;28;20479;-67
2022/03/27 00:19:34;;;;;;;32.38;22.13;;;;;;;;;;5054487;28;20059;-68
2022/03/27 00:22:01;;;;;;;32.45;22.52;;;;;;;;;;5050969;28;20048;-68
2022/03/27 00:24:28;;;;;;;32.50;23.05;;;;;;;;;;5047091;28;20072;-69
2022/03/27 00:26:55;;;;;;;32.45;23.85;;;;;;;;;;5054681;28;20080;-68
2022/03/27 00:29:22;;;;;;;32.70;22.53;;;;;;;;;;5053117;28;20049;-69
2022/03/27 00:31:48;;;;;;;29.63;22.67;;;;;;;;;;5052945;28;20091;-68
2022/03/27 00:34:15;;;;;;;32.78;22.60;;;;;;;;;;5054537;28;20056;-68
2022/03/27 00:36:41;;;;;;;29.73;21.88;;;;;;;;;;5054488;28;20056;-68
2022/03/27 00:39:08;;;;;;;30.83;21.95;;;;;;;;;;5054376;28;20095;-68
2022/03/27 00:41:34;;;;;;;32.47;22.42;;;;;;;;;;5052850;28;20488;-68
2022/03/27 00:44:01;;;;;;;30.75;20.42;;;;;;;;;;5054004;28;20443;-68
2022/03/27 00:46:27;;;;;;;31.88;22.15;;;;;;;;;;5054169;28;20443;-68
2022/03/27 00:48:54;;;;;;;29.80;21.75;;;;;;;;;;5054319;28;20052;-68
2022/03/27 00:51:20;;;;;;;28.38;22.33;;;;;;;;;;5054007;28;20090;-68
2022/03/27 00:53:47;;;;;;;30.50;21.77;;;;;;;;;;5054139;28;20049;-68
2022/03/27 00:56:13;;;;;;;27.92;20.85;;;;;;;;;;5053832;28;20094;-68
2022/03/27 00:58:40;;;;;;;31.15;21.50;;;;;;;;;;5054141;28;20052;-68
2022/03/27 01:01:06;;;;;;;31.92;22.17;;;;;;;;;;5053554;28;20049;-68
2022/03/27 01:03:33;;;;;;;30.55;20.73;;;;;;;;;;5054256;28;20045;-68
2022/03/27 01:06:00;;;;;;;30.67;21.58;;;;;;;;;;5053806;28;20550;-68
2022/03/27 01:11:17;;;;;;;32.23;22.53;;;;;;;;;;5053755;28;20417;-68
2022/03/27 01:13:54;;;;;;;30.25;21.15;;;;;;;;;;5053903;28;20286;-68
2022/03/27 01:16:40;;;;;;;28.02;19.55;;;;;;;;;;5053703;28;20052;-68
2022/03/27 01:19:09;;;;;;;30.55;22.33;;;;;;;;;;5053398;28;20048;-68
2022/03/27 01:21:37;;;;;;;30.02;20.60;;;;;;;;;;5053701;28;20045;-68
2022/03/27 01:24:03;;;;;;;;;;;;;;;;;;5040808;28;20037;-68
2022/03/27 01:26:29;;;;;;;31.38;20.73;;;;;;;;;;5053735;28;20422;-68
2022/03/27 01:28:56;;;;;;;45.65;29.08;;;;;;;;;;5053097;28;20052;-68
2022/03/27 01:31:22;;;;;;;45.08;29.50;;;;;;;;;;5053024;28;20098;-69
2022/03/27 01:33:49;;;;;;;46.95;29.42;;;;;;;;;;5053252;28;20048;-68
2022/03/27 01:36:26;;;;;;;35.97;24.63;;;;;;;;;;5053106;28;20588;-68
2022/03/27 01:38:53;;;;;;;30.13;22.48;;;;;;;;;;5052937;28;20053;-68
2022/03/27 01:41:20;;;;;;;32.65;20.70;;;;;;;;;;5053354;28;20053;-68
2022/03/27 01:43:48;;;;;;;32.40;22.80;;;;;;;;;;5053397;28;20099;-68
2022/03/27 01:46:15;;;;;;;29.15;20.40;;;;;;;;;;5053181;28;20102;-68
2022/03/27 01:48:41;;;;;;;30.37;20.50;;;;;;;;;;5052907;28;20056;-68
2022/03/27 01:51:08;;;;;;;28.63;20.65;;;;;;;;;;5052003;28;20336;-68
2022/03/27 01:53:38;;;;;;;31.58;20.60;;;;;;;;;;5025277;28;20053;-68
2022/03/27 01:56:05;;;;;;;34.22;21.80;;;;;;;;;;5046403;28;20053;-68
2022/03/27 01:58:32;;;;;;;34.42;21.50;;;;;;;;;;5044911;28;20088;-68
2022/03/27 02:00:58;;;;;;;32.53;21.23;;;;;;;;;;5045574;28;20436;-69
2022/03/27 02:03:28;;;;;;;33.83;22.50;;;;;;;;;;5053627;28;20132;-68
2022/03/27 02:05:55;;;;;;;34.17;23.42;;;;;;;;;;5051753;28;20049;-68
2022/03/27 02:08:24;;;;;;;38.10;22.50;;;;;;;;;;5052463;28;20170;-68
2022/03/27 02:10:55;;;;;;;33.55;21.95;;;;;;;;;;5052727;28;20451;-68
2022/03/27 02:13:22;;;;;;;33.60;20.92;;;;;;;;;;5052612;28;20102;-68
2022/03/27 02:15:50;;;;;;;34.72;23.48;;;;;;;;;;5052445;28;20049;-68
2022/03/27 02:18:17;;;;;;;32.33;22.25;;;;;;;;;;5051815;28;20524;-68
2022/03/27 02:20:44;;;;;;;33.13;21.05;;;;;;;;;;5052591;28;20106;-68
2022/03/27 02:23:11;;;;;;;29.70;20.38;;;;;;;;;;5039061;28;20460;-68
2022/03/27 02:25:38;;;;;;;29.03;20.10;;;;;;;;;;5052524;28;20049;-68
2022/03/27 02:28:04;;;;;;;34.72;23.27;;;;;;;;;;5052129;28;20286;-68
2022/03/27 02:30:31;;;;;;;34.83;22.80;;;;;;;;;;5052031;28;20075;-68
2022/03/27 02:32:58;;;;;;;30.23;21.80;;;;;;;;;;5051846;28;20048;-68
2022/03/27 02:35:24;;;;;;;31.42;22.17;;;;;;;;;;5052254;28;20450;-68
2022/03/27 02:37:51;;;;;;;31.38;21.00;;;;;;;;;;5052308;28;20045;-68
2022/03/27 02:40:17;;;;;;;30.73;21.10;;;;;;;;;;5051856;28;20079;-68
2022/03/27 02:42:44;;;;;;;31.65;21.52;;;;;;;;;;5052169;28;20098;-68
2022/03/27 02:45:10;;;;;;;32.00;21.48;;;;;;;;;;5052070;28;20079;-68
2022/03/27 02:47:36;;;;;;;32.22;20.85;;;;;;;;;;5051704;28;20558;-68
2022/03/27 02:50:04;;;;;;;33.45;23.65;;;;;;;;;;5052070;28;20049;-68
2022/03/27 02:52:31;;;;;;;32.03;22.35;;;;;;;;;;5052106;28;20049;-69
2022/03/27 02:54:58;;;;;;;34.28;22.17;;;;;;;;;;5051886;28;20099;-68
2022/03/27 02:57:24;;;;;;;31.25;21.83;;;;;;;;;;5050795;28;20045;-69
2022/03/27 02:59:52;;;;;;;31.50;21.08;;;;;;;;;;5051543;28;20068;-68
2022/03/27 03:02:19;;;;;;;30.02;21.60;;;;;;;;;;5051688;28;20098;-68
2022/03/27 03:04:46;;;;;;;32.38;22.38;;;;;;;;;;5051427;28;20053;-69
2022/03/27 03:07:14;;;;;;;30.10;20.52;;;;;;;;;;5051692;28;20555;-68
2022/03/27 03:09:41;;;;;;;29.70;20.45;;;;;;;;;;5051728;28;20057;-68
2022/03/27 03:12:08;;;;;;;28.80;20.55;;;;;;;;;;5051779;28;20083;-68
2022/03/27 03:14:34;;;;;;;28.02;20.40;;;;;;;;;;5051762;28;20053;-69
2022/03/27 03:17:01;;;;;;;30.40;21.60;;;;;;;;;;5051646;28;20474;-68
2022/03/27 03:19:29;;;;;;;30.15;20.90;;;;;;;;;;5051489;28;20053;-68
2022/03/27 03:21:55;;;;;;;30.90;20.98;;;;;;;;;;5047479;28;20115;-68
2022/03/27 03:24:25;;;;;;;29.25;20.33;;;;;;;;;;5040850;28;20512;-68
2022/03/27 03:26:52;;;;;;;31.15;20.30;;;;;;;;;;5050067;28;20048;-68
2022/03/27 03:29:19;;;;;;;28.27;19.97;;;;;;;;;;5050102;28;20044;-68
2022/03/27 03:31:45;;;;;;;31.30;20.85;;;;;;;;;;5053904;28;20048;-68
2022/03/27 03:34:12;;;;;;;29.42;20.88;;;;;;;;;;5055389;28;20060;-68
2022/03/27 03:36:38;;;;;;;28.85;20.75;;;;;;;;;;5055360;28;20106;-68
2022/03/27 03:39:05;;;;;;;31.42;20.85;;;;;;;;;;5055573;28;20045;-68
2022/03/27 03:41:32;;;;;;;30.35;21.00;;;;;;;;;;5048484;28;20106;-68
2022/03/27 03:44:18;;;;;;;27.63;19.90;;;;;;;;;;5055344;28;20144;-68
2022/03/27 03:46:46;;;;;;;28.65;20.20;;;;;;;;;;5055409;28;20045;-68
2022/03/27 03:49:13;;;;;;;30.50;21.35;;;;;;;;;;5055593;28;20107;-68
2022/03/27 03:51:39;;;;;;;29.88;21.27;;;;;;;;;;5055025;28;20053;-68
2022/03/27 03:54:07;;;;;;;31.67;20.35;;;;;;;;;;5055169;28;20048;-68
2022/03/27 03:56:34;;;;;;;29.70;19.48;;;;;;;;;;5055494;28;20087;-68
2022/03/27 03:59:00;;;;;;;27.13;19.48;;;;;;;;;;5055073;28;20462;-68
2022/03/27 04:01:47;;;;;;;29.88;20.33;;;;;;;;;;5055149;28;20131;-68
2022/03/27 04:04:13;;;;;;;27.95;20.23;;;;;;;;;;5054836;28;20045;-68
2022/03/27 04:06:40;;;;;;;27.85;19.10;;;;;;;;;;5055022;28;20045;-68
2022/03/27 04:09:06;;;;;;;30.13;20.42;;;;;;;;;;5055184;28;20057;-68
2022/03/27 04:11:33;;;;;;;31.13;20.38;;;;;;;;;;5055321;28;20107;-68
2022/03/27 04:13:59;;;;;;;26.50;19.55;;;;;;;;;;5054997;28;20098;-68
2022/03/27 04:16:26;;;;;;;31.20;20.55;;;;;;;;;;5054824;28;20444;-68
2022/03/27 04:18:52;;;;;;;29.75;19.92;;;;;;;;;;5053238;28;20141;-68
2022/03/27 04:21:19;;;;;;;27.27;19.20;;;;;;;;;;5054467;28;20048;-68
2022/03/27 04:23:45;;;;;;;25.55;19.17;;;;;;;;;;5044458;28;20045;-68
2022/03/27 04:26:12;;;;;;;27.33;18.95;;;;;;;;;;5054881;28;20530;-68
2022/03/27 04:28:39;;;;;;;29.42;20.02;;;;;;;;;;5053439;28;20394;-68
2022/03/27 04:31:06;;;;;;;28.75;19.63;;;;;;;;;;5054614;28;20127;-68
2022/03/27 04:33:33;;;;;;;28.60;19.77;;;;;;;;;;5054178;28;20397;-68
2022/03/27 04:36:02;;;;;;;32.13;20.27;;;;;;;;;;5053296;28;20123;-68
2022/03/27 04:38:28;;;;;;;29.98;20.50;;;;;;;;;;5054171;28;20558;-68
2022/03/27 04:40:55;;;;;;;26.10;19.13;;;;;;;;;;5054675;28;20111;-68
2022/03/27 04:43:25;;;;;;;24.83;18.48;;;;;;;;;;5053887;28;20044;-68
2022/03/27 04:45:52;;;;;;;28.05;18.77;;;;;;;;;;5054458;28;20095;-68
2022/03/27 04:48:19;;;;;;;27.83;20.02;;;;;;;;;;5054342;28;20055;-68
2022/03/27 04:50:45;;;;;;;28.00;19.58;;;;;;;;;;5054174;28;20056;-68
2022/03/27 04:53:12;;;;;;;32.63;20.98;;;;;;;;;;5054084;28;20122;-68
2022/03/27 04:55:38;;;;;;;29.70;19.63;;;;;;;;;;5053845;28;20053;-68
2022/03/27 04:58:08;;;;;;;27.98;18.95;;;;;;;;;;5054169;28;20059;-68
2022/03/27 05:00:36;;;;;;;26.38;18.83;;;;;;;;;;5052767;28;20115;-68
2022/03/27 05:03:03;;;;;;;29.92;19.75;;;;;;;;;;5053730;28;20124;-68
2022/03/27 05:05:30;;;;;;;26.83;18.88;;;;;;;;;;5053893;28;20044;-69
2022/03/27 05:07:58;;;;;;;28.95;20.35;;;;;;;;;;5054041;28;20040;-68
2022/03/27 05:10:25;;;;;;;27.20;19.35;;;;;;;;;;5053924;28;20053;-68
2022/03/27 05:12:52;;;;;;;27.10;19.63;;;;;;;;;;5053821;28;20056;-68
2022/03/27 05:15:18;;;;;;;30.27;19.42;;;;;;;;;;5052592;28;20409;-68
2022/03/27 05:17:49;;;;;;;29.83;19.00;;;;;;;;;;5053653;28;20132;-68
2022/03/27 05:20:16;;;;;;;30.38;19.83;;;;;;;;;;5052552;28;20099;-68
2022/03/27 05:22:42;;;;;;;26.63;19.13;;;;;;;;;;5045722;28;20567;-68
2022/03/27 05:25:10;;;;;;;28.88;20.00;;;;;;;;;;5053666;28;20155;-68
2022/03/27 05:27:43;;;;;;;27.05;19.17;;;;;;;;;;5053282;28;20067;-68
2022/03/27 05:30:10;;;;;;;26.35;19.48;;;;;;;;;;5053755;28;20049;-69
2022/03/27 05:32:37;;;;;;;26.15;18.02;;;;;;;;;;5053029;28;20629;-69
2022/03/27 05:35:03;;;;;;;32.63;19.88;;;;;;;;;;5053026;28;20114;-68
2022/03/27 05:37:33;;;;;;;27.75;19.70;;;;;;;;;;5053390;28;20053;-69
2022/03/27 05:40:02;;;;;;;30.83;19.55;;;;;;;;;;5053431;28;20049;-68
2022/03/27 05:42:28;;;;;;;28.75;19.80;;;;;;;;;;5051968;28;20041;-68
2022/03/27 05:44:55;;;;;;;31.25;19.95;;;;;;;;;;5052936;28;20451;-68
2022/03/27 05:47:21;;;;;;;30.75;19.35;;;;;;;;;;5052912;28;20099;-68
2022/03/27 05:49:48;;;;;;;28.30;20.27;;;;;;;;;;5053141;28;20110;-68
2022/03/27 05:52:16;;;;;;;27.70;19.75;;;;;;;;;;5053034;28;20072;-68
2022/03/27 05:54:43;;;;;;;31.30;19.88;;;;;;;;;;5052176;28;20098;-68
2022/03/27 05:57:09;;;;;;;30.23;19.88;;;;;;;;;;5052935;28;20492;-68
2022/03/27 05:59:36;;;;;;;29.58;19.05;;;;;;;;;;5052648;28;20107;-68
2022/03/27 06:02:02;;;;;;;30.48;19.65;;;;;;;;;;5051507;28;20484;-68
2022/03/27 06:04:29;;;;;;;29.75;19.58;;;;;;;;;;5052872;28;20037;-68
2022/03/27 06:06:56;;;;;;;30.38;20.45;;;;;;;;;;5052822;28;20111;-68
2022/03/27 06:09:22;;;;;;;29.85;18.88;;;;;;;;;;5051174;28;20553;-68
2022/03/27 06:11:49;;;;;;;27.95;19.90;;;;;;;;;;5052362;28;20099;-68
2022/03/27 06:14:15;;;;;;;27.88;19.83;;;;;;;;;;5052706;28;20053;-68
2022/03/27 06:16:41;;;;;;;29.13;19.85;;;;;;;;;;5052718;28;20053;-68
2022/03/27 06:19:08;;;;;;;28.70;19.27;;;;;;;;;;5052181;28;20512;-68
2022/03/27 06:21:34;;;;;;;28.50;19.10;;;;;;;;;;5052409;28;20114;-68
2022/03/27 06:24:01;;;;;;;29.77;19.98;;;;;;;;;;5045284;28;20041;-68
2022/03/27 06:26:27;;;;;;;28.70;19.23;;;;;;;;;;5052583;28;20102;-69
2022/03/27 06:28:54;;;;;;;30.65;19.52;;;;;;;;;;5052393;28;20062;-68
2022/03/27 06:31:20;;;;;;;28.92;19.42;;;;;;;;;;5052030;28;20106;-70
2022/03/27 06:33:47;;;;;;;39.25;20.52;;;;;;;;;;5052125;28;20059;-68
2022/03/27 06:36:13;;;;;;;26.27;18.42;;;;;;;;;;5052035;28;20096;-69
2022/03/27 06:38:40;;;;;;;27.90;19.17;;;;;;;;;;5052317;28;20045;-69
2022/03/27 06:41:07;;;;;;;29.02;18.42;;;;;;;;;;5052175;28;20102;-69
2022/03/27 06:43:36;;;;;;;25.65;18.60;;;;;;;;;;5050663;28;20162;-69
2022/03/27 06:46:02;;;;;;;28.17;19.30;;;;;;;;;;5050884;28;20049;-68
2022/03/27 06:48:29;;;;;;;29.20;18.90;;;;;;;;;;5051703;28;20547;-69
2022/03/27 06:50:55;;;;;;;27.15;19.15;;;;;;;;;;5052185;28;20052;-68
2022/03/27 06:53:24;;;;;;;26.60;19.63;;;;;;;;;;5051576;28;20053;-68
2022/03/27 06:55:51;;;;;;;26.83;18.52;;;;;;;;;;5051881;28;20053;-68
2022/03/27 06:58:18;;;;;;;27.83;18.90;;;;;;;;;;5050170;28;20049;-69
2022/03/27 07:03:29;;;;;;;33.10;22.08;;;;;;;;;;5031501;28;20124;-74
2022/03/27 07:05:56;;;;;;;31.50;22.35;;;;;;;;;;5030263;28;20041;-74
2022/03/27 07:08:23;;;;;;;30.10;21.73;;;;;;;;;;5031108;28;20049;-75
2022/03/27 07:10:50;;;;;;;28.08;20.52;;;;;;;;;;5031512;28;20057;-72
2022/03/27 07:13:17;;;;;;;27.05;20.20;;;;;;;;;;5031924;28;20485;-73
2022/03/27 07:15:47;;;;;;;26.88;19.40;;;;;;;;;;5050384;28;20041;-73
2022/03/27 07:18:14;;;;;;;29.67;21.75;;;;;;;;;;5050368;28;20045;-73
2022/03/27 07:20:41;;;;;;;28.92;21.13;;;;;;;;;;5050491;28;20063;-74
2022/03/27 07:23:09;;;;;;;28.40;19.73;;;;;;;;;;5037873;28;20452;-74
2022/03/27 07:25:39;;;;;;;30.27;21.30;;;;;;;;;;5031071;28;20050;-74
2022/03/27 07:28:06;;;;;;;32.75;21.67;;;;;;;;;;5030948;28;20041;-73
2022/03/27 07:30:37;;;;;;;32.92;21.63;;;;;;;;;;5031268;28;20053;-75
2022/03/27 07:33:03;;;;;;;31.58;22.73;;;;;;;;;;5029633;28;20582;-71
2022/03/27 07:35:32;;;;;;;30.08;20.73;;;;;;;;;;5038252;28;20431;-73
2022/03/27 07:37:59;;;;;;;32.85;23.10;;;;;;;;;;5051288;28;20056;-72
2022/03/27 07:40:26;;;;;;;28.60;22.23;;;;;;;;;;5051519;28;20041;-75
2022/03/27 07:42:54;;;;;;;29.40;22.63;;;;;;;;;;5051177;28;20166;-72
2022/03/27 07:45:21;;;;;;;28.95;21.67;;;;;;;;;;5051162;28;20052;-74
2022/03/27 07:47:49;;;;;;;31.40;22.05;;;;;;;;;;5051602;28;20049;-73
2022/03/27 07:50:16;;;;;;;29.67;22.38;;;;;;;;;;5051304;28;20551;-74
2022/03/27 07:52:44;;;;;;;32.05;22.77;;;;;;;;;;5036328;28;20062;-72
2022/03/27 07:55:13;;;;;;;27.23;21.05;;;;;;;;;;5030520;28;20049;-72
2022/03/27 07:57:41;;;;;;;26.80;21.17;;;;;;;;;;5030910;28;20111;-73
2022/03/27 08:00:10;;;;;;;26.77;21.92;;;;;;;;;;5030340;28;20092;-75
2022/03/27 08:02:37;;;;;;;26.95;19.92;;;;;;;;;;5029155;28;20103;-73
2022/03/27 08:05:04;;;;;;;25.05;20.52;;;;;;;;;;5031153;28;20045;-69
2022/03/27 08:07:31;;;;;;;28.03;19.83;;;;;;;;;;5036323;28;20111;-70
2022/03/27 08:09:58;;;;;;;25.48;19.92;;;;;;;;;;5030554;28;20049;-68
2022/03/27 08:12:25;;;;;;;26.50;19.50;;;;;;;;;;5037397;28;20452;-68
2022/03/27 08:14:51;;;;;;;24.67;18.77;;;;;;;;;;5030950;28;20096;-69
2022/03/27 08:17:18;;;;;;;23.90;18.70;;;;;;;;;;5050875;28;20122;-69
2022/03/27 08:19:46;;;;;;;22.25;18.30;;;;;;;;;;5053833;28;20060;-72
2022/03/27 08:22:13;;;;;;;18.90;15.38;;;;;;;;;;5052340;28;20098;-73
2022/03/27 08:24:40;;;;;;;20.60;17.55;;;;;;;;;;5054806;28;20052;-73
2022/03/27 08:27:08;;;;;;;19.80;17.05;;;;;;;;;;5054401;28;20045;-75
2022/03/27 08:29:35;;;;;;;17.27;15.32;;;;;;;;;;5054418;28;20493;-75
2022/03/27 08:32:03;;;;;;;16.33;14.05;;;;;;;;;;5054133;28;20099;-75
2022/03/27 08:34:32;;;;;;;15.55;13.45;;;;;;;;;;5054309;28;20078;-73
2022/03/27 08:37:01;;;;;;;17.00;14.13;;;;;;;;;;5054308;28;20106;-72
2022/03/27 08:39:27;;;;;;;16.15;13.90;;;;;;;;;;5052238;28;20071;-74
2022/03/27 08:41:54;;;;;;;15.20;13.48;;;;;;;;;;5053732;28;20094;-70
2022/03/27 08:44:22;;;;;;;13.82;12.23;;;;;;;;;;5054190;28;20123;-69
2022/03/27 08:46:49;;;;;;;15.93;12.65;;;;;;;;;;5052117;28;20053;-69
2022/03/27 08:49:35;;;;;;;14.13;12.63;;;;;;;;;;5034682;28;20045;-69
2022/03/27 08:52:17;;;;;;;15.02;12.68;;;;;;;;;;5050076;28;20049;-72
2022/03/27 08:54:47;;;;;;;13.02;11.73;;;;;;;;;;5053292;28;20098;-69
2022/03/27 08:57:21;;;;;;;13.75;12.35;;;;;;;;;;5053661;28;20485;-68
2022/03/27 08:59:49;;;;;;;13.25;11.68;;;;;;;;;;5053407;28;20053;-70
2022/03/27 09:02:19;;;;;;;13.95;12.60;;;;;;;;;;5053613;28;20045;-68
2022/03/27 09:04:46;;;;;;;13.38;11.63;;;;;;;;;;5051624;28;20048;-69
2022/03/27 09:07:12;;;;;;;13.60;11.25;;;;;;;;;;5050544;28;20115;-69
2022/03/27 09:09:39;;;;;;;14.17;12.03;;;;;;;;;;5048128;28;20045;-68
2022/03/27 09:12:06;;;;;;;12.77;10.97;;;;;;;;;;5053981;28;20749;-69
2022/03/27 09:14:33;;;;;;;13.25;11.73;;;;;;;;;;5053352;28;20278;-69
2022/03/27 09:17:01;;;;;;;12.90;11.60;;;;;;;;;;5052762;28;20118;-69
2022/03/27 09:19:35;;;;;;;13.82;12.43;;;;;;;;;;5052277;28;20056;-69
2022/03/27 09:22:14;;;;;;;13.13;11.70;;;;;;;;;;5049247;28;20159;-69
2022/03/27 09:24:42;;;;;;;13.20;11.80;;;;;;;;;;5027647;28;20045;-69
2022/03/27 09:27:08;;;;;;;12.15;10.95;;;;;;;;;;5053297;28;20094;-69
2022/03/27 09:29:54;;;;;;;12.35;11.05;;;;;;;;;;5051890;28;20098;-69
2022/03/27 09:32:35;;;;;;;12.80;11.60;;;;;;;;;;5052432;28;20053;-69
2022/03/27 09:35:01;;;;;;;12.82;11.52;;;;;;;;;;5051678;28;20118;-69
2022/03/27 09:37:31;;;;;;;11.82;10.63;;;;;;;;;;5053020;28;20049;-69
2022/03/27 09:39:58;;;;;;;12.13;10.93;;;;;;;;;;5052540;28;20110;-69
2022/03/27 09:42:25;;;;;;;12.52;11.05;;;;;;;;;;5053084;28;20385;-69
2022/03/27 09:45:11;;;;;;;10.85;9.05;;;;;;;;;;5053319;28;20086;-70
2022/03/27 09:47:37;;;;;;;11.20;10.10;;;;;;;;;;5053527;28;20048;-70
2022/03/27 09:50:04;;;;;;;11.57;10.48;;;;;;;;;;5042059;28;20452;-70
2022/03/27 09:52:32;;;;;;;11.82;10.60;;;;;;;;;;5052065;28;20107;-71
2022/03/27 09:55:05;;;;;;;12.32;11.13;;;;;;;;;;5052565;28;20081;-69
2022/03/27 09:57:33;;;;;;;12.30;10.98;;;;;;;;;;5052361;28;20049;-69
2022/03/27 10:00:12;;;;;;;13.80;11.32;;;;;;;;;;5052978;28;20048;-68
2022/03/27 10:02:43;;;;;;;12.00;10.90;;;;;;;;;;5050442;28;20049;-69
2022/03/27 10:05:14;;;;;;;12.50;11.23;;;;;;;;;;5051462;28;20048;-69
2022/03/27 10:07:45;;;;;;;11.70;10.60;;;;;;;;;;5052487;28;20045;-68
2022/03/27 10:10:15;;;;;;;11.38;10.30;;;;;;;;;;5052033;28;20103;-68
2022/03/27 10:12:43;;;;;;;11.13;10.07;;;;;;;;;;5052186;28;20076;-68
2022/03/27 10:15:14;;;;;;;12.07;10.55;;;;;;;;;;5052039;28;20447;-68
2022/03/27 10:17:43;;;;;;;10.98;9.98;;;;;;;;;;5051874;28;20095;-68
2022/03/27 10:20:13;;;;;;;11.07;9.98;;;;;;;;;;5051545;28;20056;-68
2022/03/27 10:22:44;;;;;;;10.73;9.68;;;;;;;;;;5052017;28;20099;-68
2022/03/27 10:25:11;;;;;;;11.82;10.48;;;;;;;;;;5051529;28;20087;-69
2022/03/27 10:27:38;;;;;;;11.23;10.13;;;;;;;;;;5051787;28;20485;-68
2022/03/27 10:30:06;;;;;;;10.43;9.40;;;;;;;;;;5052108;28;20045;-68
2022/03/27 10:32:33;;;;;;;10.32;9.32;;;;;;;;;;5052026;28;20505;-68
2022/03/27 10:34:59;;;;;;;;;;;;;;;;;;5052042;28;20099;-69
2022/03/27 10:37:25;;;;;;;10.52;9.63;;;;;;;;;;5052333;28;19951;-68
2022/03/27 10:39:57;;;;;;;10.35;9.45;;;;;;;;;;5052138;28;20055;-69
2022/03/27 10:42:38;;;;;;;9.73;8.82;;;;;;;;;;5051730;28;20045;-69
2022/03/27 10:45:23;;;;;;;10.77;9.75;;;;;;;;;;5051407;28;20052;-69
2022/03/27 10:48:08;;;;;;;9.93;9.00;;;;;;;;;;5051407;28;20045;-69
2022/03/27 10:51:03;;;;;;;9.75;8.82;;;;;;;;;;5049204;28;20079;-69
2022/03/27 10:53:30;;;;;;;9.15;8.35;;;;;;;;;;5051422;28;20492;-69
2022/03/27 10:55:57;;;;;;;8.88;7.95;;;;;;;;;;5050481;28;20048;-68
2022/03/27 10:58:32;;;;;;;8.60;7.90;;;;;;;;;;5051642;28;20098;-70
2022/03/27 11:01:00;;;;;;;7.90;7.20;;;;;;;;;;5051737;28;20087;-69
2022/03/27 11:03:46;;;;;;;8.30;7.60;;;;;;;;;;5051986;28;20543;-69
2022/03/27 11:06:26;;;;;;;8.60;7.90;;;;;;;;;;5051889;28;20091;-69
2022/03/27 11:08:53;;;;;;;9.15;8.35;;;;;;;;;;5052179;28;20111;-70
2022/03/27 11:11:38;;;;;;;9.88;8.05;;;;;;;;;;5051571;28;20501;-70
2022/03/27 11:14:05;;;;;;;8.23;7.50;;;;;;;;;;5051555;28;20492;-69
2022/03/27 11:16:41;;;;;;;8.57;7.88;;;;;;;;;;5051435;28;20053;-69
2022/03/27 11:19:27;;;;;;;8.10;7.35;;;;;;;;;;5051672;28;20056;-69
2022/03/27 11:21:54;;;;;;;;;;;;;;;;;;5051769;28;21015;-69
2022/03/27 11:24:20;;;;;;;7.00;6.40;;;;;;;;;;5051029;28;20372;-71
2022/03/27 11:26:50;;;;;;;7.70;7.00;;;;;;;;;;5029847;28;20087;-73
2022/03/27 11:29:21;;;;;;;7.47;6.88;;;;;;;;;;5050041;28;20095;-74
2022/03/27 11:32:07;;;;;;;7.75;7.15;;;;;;;;;;5050532;28;20520;-70
2022/03/27 11:34:34;;;;;;;7.75;7.15;;;;;;;;;;5050830;28;20053;-70
2022/03/27 11:37:23;;;;;;;8.00;7.30;;;;;;;;;;5050850;28;20098;-70
2022/03/27 11:39:50;;;;;;;8.77;8.07;;;;;;;;;;5049931;28;20124;-69
2022/03/27 11:42:25;;;;;;;7.97;7.28;;;;;;;;;;5050704;28;20041;-70
2022/03/27 11:45:10;;;;;;;7.30;6.70;;;;;;;;;;5051377;28;20114;-70
2022/03/27 11:47:37;;;;;;;8.18;7.45;;;;;;;;;;5051584;28;20055;-71
2022/03/27 11:50:04;;;;;;;7.75;7.05;;;;;;;;;;5040367;28;20045;-70
2022/03/27 11:52:30;;;;;;;;;;;;;;;;;;5053287;28;20053;-70
2022/03/27 11:55:07;;;;;;;7.75;7.15;;;;;;;;;;5055039;28;19924;-70
2022/03/27 11:57:47;;;;;;;7.72;6.97;;;;;;;;;;5054871;28;20489;-70
2022/03/27 12:00:30;;;;;;;7.38;6.75;;;;;;;;;;5055159;28;20053;-71
2022/03/27 12:02:57;;;;;;;7.40;6.80;;;;;;;;;;5054894;28;20060;-70
2022/03/27 12:05:38;;;;;;;7.40;6.80;;;;;;;;;;5054985;28;20369;-70
2022/03/27 12:08:06;;;;;;;7.40;6.80;;;;;;;;;;5055026;28;20447;-71
2022/03/27 12:10:43;;;;;;;7.93;7.22;;;;;;;;;;5054721;28;20103;-71
2022/03/27 12:13:10;;;;;;;8.25;7.50;;;;;;;;;;5022531;28;20441;-71
2022/03/27 12:15:49;;;;;;;7.95;7.25;;;;;;;;;;5048678;28;20059;-71
2022/03/27 12:18:33;;;;;;;7.90;7.10;;;;;;;;;;5053026;28;20149;-71
2022/03/27 12:21:01;;;;;;;7.78;7.07;;;;;;;;;;5053639;28;20067;-74
2022/03/27 12:23:29;;;;;;;7.80;7.10;;;;;;;;;;5054370;28;20049;-74
2022/03/27 12:25:58;;;;;;;9.85;9.00;;;;;;;;;;5049728;28;20045;-74
2022/03/27 12:31:23;;;;;;;7.63;7.03;;;;;;;;;;5054426;28;20496;-74
2022/03/27 12:33:50;;;;;;;7.65;7.05;;;;;;;;;;5054554;28;20045;-74
2022/03/27 12:36:20;;;;;;;7.80;7.20;;;;;;;;;;5054679;28;20057;-74
2022/03/27 12:38:47;;;;;;;8.30;7.60;;;;;;;;;;5054441;28;20107;-74
2022/03/27 12:41:15;;;;;;;9.05;8.25;;;;;;;;;;5054055;28;20048;-74
2022/03/27 12:44:01;;;;;;;9.77;8.98;;;;;;;;;;5054378;28;20045;-75
2022/03/27 12:46:28;;;;;;;9.38;8.57;;;;;;;;;;5054460;28;20049;-74
2022/03/27 12:48:54;;;;;;;;;;;;;;;;;;5054454;28;20044;-74
2022/03/27 12:51:21;;;;;;;9.50;8.70;;;;;;;;;;5053958;28;19974;-74
2022/03/27 12:53:58;;;;;;;9.95;9.13;;;;;;;;;;5054201;28;20057;-74
2022/03/27 12:56:25;;;;;;;9.23;8.43;;;;;;;;;;5054249;28;20041;-74
2022/03/27 12:58:51;;;;;;;9.70;8.70;;;;;;;;;;5053821;28;20057;-74
2022/03/27 13:01:19;;;;;;;8.27;7.43;;;;;;;;;;5052687;28;20095;-74
2022/03/27 13:04:12;;;;;;;9.38;8.57;;;;;;;;;;5054134;28;20126;-74
2022/03/27 13:06:41;;;;;;;8.95;8.25;;;;;;;;;;5053018;28;20107;-74
2022/03/27 13:09:08;;;;;;;10.13;9.13;;;;;;;;;;5052276;28;20048;-74
2022/03/27 13:11:39;;;;;;;14.65;13.40;;;;;;;;;;5053995;28;20399;-74
2022/03/27 13:14:06;;;;;;;9.07;8.25;;;;;;;;;;5053782;28;20049;-73
2022/03/27 13:16:33;;;;;;;9.13;8.30;;;;;;;;;;5053804;28;20049;-74
2022/03/27 13:19:02;;;;;;;9.65;8.75;;;;;;;;;;5053679;28;20057;-74
2022/03/27 13:21:33;;;;;;;9.55;8.75;;;;;;;;;;5052225;28;20051;-74
2022/03/27 13:24:00;;;;;;;9.23;8.32;;;;;;;;;;5053358;28;20103;-74
2022/03/27 13:26:27;;;;;;;9.35;8.60;;;;;;;;;;5052705;28;20048;-75
2022/03/27 13:28:54;;;;;;;8.88;8.13;;;;;;;;;;5052652;28;20099;-75
2022/03/27 13:31:21;;;;;;;10.10;9.20;;;;;;;;;;5053559;28;20049;-75
2022/03/27 13:33:48;;;;;;;8.93;8.23;;;;;;;;;;5053315;28;20059;-78
2022/03/27 13:36:16;;;;;;;9.05;8.25;;;;;;;;;;5052662;28;20052;-75
2022/03/27 13:38:42;;;;;;;8.32;7.72;;;;;;;;;;5053112;28;20478;-74
2022/03/27 13:43:54;;;;;;;8.77;7.97;;;;;;;;;;5036409;28;20049;-74
2022/03/27 13:46:21;;;;;;;8.52;7.82;;;;;;;;;;5053400;28;20048;-74
2022/03/27 13:48:47;;;;;;;8.60;7.80;;;;;;;;;;5053179;28;20045;-73
2022/03/27 13:51:14;;;;;;;8.85;8.07;;;;;;;;;;5053014;28;20041;-75
2022/03/27 13:53:41;;;;;;;8.38;7.57;;;;;;;;;;5050560;28;20053;-72
2022/03/27 13:56:08;;;;;;;8.60;7.80;;;;;;;;;;5052756;28;20095;-73
2022/03/27 13:58:34;;;;;;;8.15;7.45;;;;;;;;;;5052638;28;20559;-73
2022/03/27 14:01:01;;;;;;;8.13;7.28;;;;;;;;;;5052705;28;20085;-73
2022/03/27 14:03:28;;;;;;;7.30;6.70;;;;;;;;;;5052949;28;20041;-73
2022/03/27 14:05:55;;;;;;;8.55;7.80;;;;;;;;;;5052604;28;20520;-72
2022/03/27 14:08:22;;;;;;;8.85;7.97;;;;;;;;;;5051735;28;20061;-73
2022/03/27 14:10:48;;;;;;;8.77;7.97;;;;;;;;;;5052370;28;20114;-73
2022/03/27 14:13:16;;;;;;;9.43;8.50;;;;;;;;;;5052498;28;20455;-72
2022/03/27 14:15:43;;;;;;;9.10;8.15;;;;;;;;;;5052168;28;20479;-71
2022/03/27 14:18:09;;;;;;;8.43;7.72;;;;;;;;;;5052240;28;20547;-71
2022/03/27 14:20:36;;;;;;;;;;;;;;;;;;5052909;28;20049;-70
2022/03/27 14:23:02;;;;;;;8.20;7.53;;;;;;;;;;5051890;28;20447;-69
2022/03/27 14:25:29;;;;;;;9.05;8.25;;;;;;;;;;5051037;28;20448;-70
2022/03/27 14:27:56;;;;;;;8.20;7.45;;;;;;;;;;5048351;28;20570;-70
2022/03/27 14:30:22;;;;;;;8.90;8.10;;;;;;;;;;5050862;28;20045;-70
2022/03/27 14:32:49;;;;;;;8.90;8.18;;;;;;;;;;5051566;28;20111;-70
2022/03/27 14:35:16;;;;;;;9.00;8.20;;;;;;;;;;5052295;28;20102;-70
2022/03/27 14:37:43;;;;;;;8.88;7.97;;;;;;;;;;5051943;28;20056;-69
2022/03/27 14:40:11;;;;;;;8.52;7.82;;;;;;;;;;5051858;28;20053;-70
2022/03/27 14:42:38;;;;;;;8.80;8.00;;;;;;;;;;5050688;28;20439;-70
2022/03/27 14:45:06;;;;;;;9.52;8.50;;;;;;;;;;5049923;28;20041;-70